sensor_id;sensor_type;location;lat;lon;timestamp;pressure;altitude;pressure_sealevel;temperature;humidity
51528;BME280;37612;51.768;21.590;2023-03-03T00:03:55;100390.13;;;-3.55;97.48
51528;BME280;37612;51.768;21.590;2023-03-03T00:07:57;100386.96;;;-3.62;97.58
51528;BME280;37612;51.768;21.590;2023-03-03T00:11:59;100381.35;;;-3.67;97.32
51528;BME280;37612;51.768;21.590;2023-03-03T00:24:36;100383.09;;;-3.83;97.61
51528;BME280;37612;51.768;21.590;2023-03-03T00:28:46;100378.52;;;-3.90;97.73
51528;BME280;37612;51.768;21.590;2023-03-03T00:32:47;100380.27;;;-3.92;97.62
51528;BME280;37612;51.768;21.590;2023-03-03T00:36:55;100377.09;;;-3.88;97.89
51528;BME280;37612;51.768;21.590;2023-03-03T00:40:57;100373.94;;;-3.88;97.73
51528;BME280;37612;51.768;21.590;2023-03-03T00:44:59;100358.58;;;-3.92;97.71
51528;BME280;37612;51.768;21.590;2023-03-03T00:49:00;100355.32;;;-3.98;97.62
51528;BME280;37612;51.768;21.590;2023-03-03T00:53:06;100354.37;;;-4.01;97.46
51528;BME280;37612;51.768;21.590;2023-03-03T00:57:07;100356.18;;;-4.03;97.47
51528;BME280;37612;51.768;21.590;2023-03-03T01:01:09;100353.55;;;-4.09;97.38
51528;BME280;37612;51.768;21.590;2023-03-03T01:05:15;100349.28;;;-4.17;97.45
51528;BME280;37612;51.768;21.590;2023-03-03T01:09:17;100346.86;;;-4.26;97.41
51528;BME280;37612;51.768;21.590;2023-03-03T01:13:23;100351.78;;;-4.31;97.37
51528;BME280;37612;51.768;21.590;2023-03-03T01:17:26;100340.73;;;-4.33;97.29
51528;BME280;37612;51.768;21.590;2023-03-03T01:21:27;100337.06;;;-4.46;96.98
51528;BME280;37612;51.768;21.590;2023-03-03T01:25:28;100333.99;;;-4.59;96.98
51528;BME280;37612;51.768;21.590;2023-03-03T01:29:30;100328.98;;;-4.71;97.08
51528;BME280;37612;51.768;21.590;2023-03-03T01:33:33;100319.94;;;-4.74;97.30
51528;BME280;37612;51.768;21.590;2023-03-03T01:37:35;100317.29;;;-4.77;97.22
51528;BME280;37612;51.768;21.590;2023-03-03T01:41:36;100312.50;;;-4.84;97.47
51528;BME280;37612;51.768;21.590;2023-03-03T01:50:11;100299.07;;;-4.90;97.71
51528;BME280;37612;51.768;21.590;2023-03-03T01:54:34;100298.16;;;-4.85;97.92
51528;BME280;37612;51.768;21.590;2023-03-03T01:58:40;100294.71;;;-4.81;98.04
51528;BME280;37612;51.768;21.590;2023-03-03T02:02:43;100289.45;;;-4.79;98.25
51528;BME280;37612;51.768;21.590;2023-03-03T02:06:53;100284.94;;;-4.77;98.33
51528;BME280;37612;51.768;21.590;2023-03-03T02:10:56;100283.95;;;-4.74;98.09
51528;BME280;37612;51.768;21.590;2023-03-03T02:14:58;100292.08;;;-4.70;97.76
51528;BME280;37612;51.768;21.590;2023-03-03T02:18:59;100287.23;;;-4.65;98.13
51528;BME280;37612;51.768;21.590;2023-03-03T02:23:09;100292.40;;;-4.60;98.16
51528;BME280;37612;51.768;21.590;2023-03-03T02:27:13;100286.59;;;-4.59;98.20
51528;BME280;37612;51.768;21.590;2023-03-03T02:31:17;100282.33;;;-4.59;98.04
51528;BME280;37612;51.768;21.590;2023-03-03T02:35:28;100283.84;;;-4.56;97.73
51528;BME280;37612;51.768;21.590;2023-03-03T02:39:30;100277.39;;;-4.58;97.70
51528;BME280;37612;51.768;21.590;2023-03-03T02:43:38;100272.43;;;-4.58;97.99
51528;BME280;37612;51.768;21.590;2023-03-03T02:47:48;100269.04;;;-4.61;98.15
51528;BME280;37612;51.768;21.590;2023-03-03T02:51:50;100269.20;;;-4.61;98.03
51528;BME280;37612;51.768;21.590;2023-03-03T02:55:51;100266.48;;;-4.58;98.00
51528;BME280;37612;51.768;21.590;2023-03-03T02:59:53;100263.94;;;-4.55;98.05
51528;BME280;37612;51.768;21.590;2023-03-03T03:03:55;100262.54;;;-4.55;98.17
51528;BME280;37612;51.768;21.590;2023-03-03T03:07:56;100258.52;;;-4.58;98.13
51528;BME280;37612;51.768;21.590;2023-03-03T03:11:57;100255.92;;;-4.59;98.11
51528;BME280;37612;51.768;21.590;2023-03-03T03:16:02;100258.12;;;-4.54;98.18
51528;BME280;37612;51.768;21.590;2023-03-03T03:20:04;100256.89;;;-4.50;98.31
51528;BME280;37612;51.768;21.590;2023-03-03T03:24:05;100252.79;;;-4.49;98.40
51528;BME280;37612;51.768;21.590;2023-03-03T03:28:07;100257.94;;;-4.50;98.46
51528;BME280;37612;51.768;21.590;2023-03-03T03:32:08;100256.06;;;-4.54;98.42
51528;BME280;37612;51.768;21.590;2023-03-03T03:36:10;100256.55;;;-4.54;98.17
51528;BME280;37612;51.768;21.590;2023-03-03T03:40:12;100257.17;;;-4.50;98.36
51528;BME280;37612;51.768;21.590;2023-03-03T03:44:13;100255.28;;;-4.46;98.41
51528;BME280;37612;51.768;21.590;2023-03-03T03:48:15;100256.02;;;-4.41;98.87
51528;BME280;37612;51.768;21.590;2023-03-03T03:52:16;100253.84;;;-4.37;98.92
51528;BME280;37612;51.768;21.590;2023-03-03T03:56:18;100246.49;;;-4.29;98.59
51528;BME280;37612;51.768;21.590;2023-03-03T04:00:19;100243.34;;;-4.18;98.74
51528;BME280;37612;51.768;21.590;2023-03-03T04:04:21;100246.73;;;-4.10;98.59
51528;BME280;37612;51.768;21.590;2023-03-03T04:08:22;100242.63;;;-4.03;98.93
51528;BME280;37612;51.768;21.590;2023-03-03T04:12:23;100248.35;;;-3.96;99.04
51528;BME280;37612;51.768;21.590;2023-03-03T04:16:24;100242.83;;;-3.87;99.29
51528;BME280;37612;51.768;21.590;2023-03-03T04:20:26;100243.52;;;-3.75;99.37
51528;BME280;37612;51.768;21.590;2023-03-03T04:24:27;100239.33;;;-3.59;99.43
51528;BME280;37612;51.768;21.590;2023-03-03T04:28:28;100237.15;;;-3.46;99.43
51528;BME280;37612;51.768;21.590;2023-03-03T04:32:30;100231.81;;;-3.38;99.40
51528;BME280;37612;51.768;21.590;2023-03-03T04:36:34;100224.69;;;-3.33;99.41
51528;BME280;37612;51.768;21.590;2023-03-03T04:40:35;100222.11;;;-3.30;99.64
51528;BME280;37612;51.768;21.590;2023-03-03T04:44:37;100215.27;;;-3.22;99.65
51528;BME280;37612;51.768;21.590;2023-03-03T04:48:38;100207.37;;;-3.13;99.59
51528;BME280;37612;51.768;21.590;2023-03-03T04:52:40;100191.44;;;-3.07;99.32
51528;BME280;37612;51.768;21.590;2023-03-03T04:56:41;100187.85;;;-3.04;99.61
51528;BME280;37612;51.768;21.590;2023-03-03T05:00:42;100187.19;;;-3.03;99.72
51528;BME280;37612;51.768;21.590;2023-03-03T05:04:43;100192.89;;;-3.03;99.83
51528;BME280;37612;51.768;21.590;2023-03-03T05:08:45;100186.08;;;-2.99;99.89
51528;BME280;37612;51.768;21.590;2023-03-03T05:12:46;100186.23;;;-2.93;99.58
51528;BME280;37612;51.768;21.590;2023-03-03T05:16:48;100194.31;;;-2.88;99.86
51528;BME280;37612;51.768;21.590;2023-03-03T05:20:50;100195.43;;;-2.85;99.96
51528;BME280;37612;51.768;21.590;2023-03-03T05:24:52;100197.09;;;-2.84;99.98
51528;BME280;37612;51.768;21.590;2023-03-03T05:28:53;100197.04;;;-2.85;99.96
51528;BME280;37612;51.768;21.590;2023-03-03T05:32:54;100196.77;;;-2.83;99.97
51528;BME280;37612;51.768;21.590;2023-03-03T05:36:56;100202.15;;;-2.81;99.83
51528;BME280;37612;51.768;21.590;2023-03-03T05:40:57;100202.32;;;-2.81;99.66
51528;BME280;37612;51.768;21.590;2023-03-03T05:44:59;100205.95;;;-2.86;99.53
51528;BME280;37612;51.768;21.590;2023-03-03T05:49:00;100209.94;;;-2.92;99.68
51528;BME280;37612;51.768;21.590;2023-03-03T05:53:02;100198.91;;;-3.00;99.61
51528;BME280;37612;51.768;21.590;2023-03-03T05:57:03;100199.55;;;-3.08;99.58
51528;BME280;37612;51.768;21.590;2023-03-03T06:01:04;100204.13;;;-3.07;99.43
51528;BME280;37612;51.768;21.590;2023-03-03T06:05:06;100208.67;;;-3.05;99.48
51528;BME280;37612;51.768;21.590;2023-03-03T06:09:08;100208.52;;;-3.04;99.69
51528;BME280;37612;51.768;21.590;2023-03-03T06:13:09;100201.83;;;-3.03;99.75
51528;BME280;37612;51.768;21.590;2023-03-03T06:17:10;100200.55;;;-2.99;99.91
51528;BME280;37612;51.768;21.590;2023-03-03T06:21:11;100204.33;;;-2.90;99.87
51528;BME280;37612;51.768;21.590;2023-03-03T06:25:13;100204.05;;;-2.86;99.86
51528;BME280;37612;51.768;21.590;2023-03-03T06:29:15;100212.64;;;-2.84;99.86
51528;BME280;37612;51.768;21.590;2023-03-03T06:33:17;100210.23;;;-2.83;99.97
51528;BME280;37612;51.768;21.590;2023-03-03T06:37:18;100207.21;;;-2.78;100.00
51528;BME280;37612;51.768;21.590;2023-03-03T06:41:19;100211.47;;;-2.65;100.00
51528;BME280;37612;51.768;21.590;2023-03-03T06:45:20;100204.21;;;-2.52;99.99
51528;BME280;37612;51.768;21.590;2023-03-03T06:49:22;100196.59;;;-2.39;99.84
51528;BME280;37612;51.768;21.590;2023-03-03T06:53:50;100197.29;;;-2.29;99.98
51528;BME280;37612;51.768;21.590;2023-03-03T07:28:10;100195.92;;;-1.66;100.00
51528;BME280;37612;51.768;21.590;2023-03-03T07:32:37;100196.57;;;-1.56;100.00
51528;BME280;37612;51.768;21.590;2023-03-03T07:36:39;100193.35;;;-1.45;100.00
51528;BME280;37612;51.768;21.590;2023-03-03T07:40:50;100190.69;;;-1.30;100.00
51528;BME280;37612;51.768;21.590;2023-03-03T07:44:57;100192.05;;;-1.19;100.00
51528;BME280;37612;51.768;21.590;2023-03-03T07:48:59;100191.16;;;-1.21;100.00
51528;BME280;37612;51.768;21.590;2023-03-03T07:53:01;100184.94;;;-1.24;100.00
51528;BME280;37612;51.768;21.590;2023-03-03T07:57:23;100182.55;;;-1.23;100.00
51528;BME280;37612;51.768;21.590;2023-03-03T08:05:37;100181.14;;;-1.19;100.00
51528;BME280;37612;51.768;21.590;2023-03-03T08:09:43;100174.23;;;-1.10;100.00
51528;BME280;37612;51.768;21.590;2023-03-03T08:13:45;100175.66;;;-0.98;100.00
51528;BME280;37612;51.768;21.590;2023-03-03T08:17:47;100174.45;;;-0.85;100.00
51528;BME280;37612;51.768;21.590;2023-03-03T08:21:49;100177.84;;;-0.75;100.00
51528;BME280;37612;51.768;21.590;2023-03-03T08:25:51;100180.66;;;-0.75;100.00
51528;BME280;37612;51.768;21.590;2023-03-03T08:29:52;100189.60;;;-0.74;100.00
51528;BME280;37612;51.768;21.590;2023-03-03T08:33:54;100193.77;;;-0.70;100.00
51528;BME280;37612;51.768;21.590;2023-03-03T08:37:55;100198.42;;;-0.57;100.00
51528;BME280;37612;51.768;21.590;2023-03-03T08:41:57;100206.77;;;-0.49;100.00
51528;BME280;37612;51.768;21.590;2023-03-03T08:46:00;100211.45;;;-0.38;100.00
51528;BME280;37612;51.768;21.590;2023-03-03T08:50:02;100207.21;;;-0.37;100.00
51528;BME280;37612;51.768;21.590;2023-03-03T08:54:04;100213.58;;;-0.44;100.00
51528;BME280;37612;51.768;21.590;2023-03-03T08:58:05;100213.21;;;-0.41;100.00
51528;BME280;37612;51.768;21.590;2023-03-03T09:02:07;100212.77;;;-0.35;100.00
51528;BME280;37612;51.768;21.590;2023-03-03T09:06:08;100206.23;;;-0.27;100.00
51528;BME280;37612;51.768;21.590;2023-03-03T09:10:12;100210.60;;;-0.22;100.00
51528;BME280;37612;51.768;21.590;2023-03-03T09:14:17;100211.94;;;-0.13;100.00
51528;BME280;37612;51.768;21.590;2023-03-03T09:18:28;100212.98;;;-0.07;100.00
51528;BME280;37612;51.768;21.590;2023-03-03T09:22:35;100214.83;;;-0.05;100.00
51528;BME280;37612;51.768;21.590;2023-03-03T09:30:39;100198.33;;;0.19;100.00
51528;BME280;37612;51.768;21.590;2023-03-03T09:34:45;100195.49;;;0.31;100.00
51528;BME280;37612;51.768;21.590;2023-03-03T09:38:47;100196.02;;;0.37;100.00
51528;BME280;37612;51.768;21.590;2023-03-03T09:42:54;100194.81;;;0.41;100.00
51528;BME280;37612;51.768;21.590;2023-03-03T09:51:12;100192.73;;;0.52;100.00
51528;BME280;37612;51.768;21.590;2023-03-03T09:55:40;100193.01;;;0.57;100.00
51528;BME280;37612;51.768;21.590;2023-03-03T10:08:55;100182.24;;;0.56;100.00
51528;BME280;37612;51.768;21.590;2023-03-03T10:13:15;100182.15;;;0.56;100.00
51528;BME280;37612;51.768;21.590;2023-03-03T10:25:59;100172.56;;;0.55;100.00
51528;BME280;37612;51.768;21.590;2023-03-03T10:30:33;100166.84;;;0.63;100.00
51528;BME280;37612;51.768;21.590;2023-03-03T10:35:05;100161.52;;;0.74;100.00
51528;BME280;37612;51.768;21.590;2023-03-03T10:43:58;100157.85;;;1.05;100.00
51528;BME280;37612;51.768;21.590;2023-03-03T11:01:58;100142.38;;;1.36;100.00
51528;BME280;37612;51.768;21.590;2023-03-03T11:15:55;100130.77;;;1.48;99.69
51528;BME280;37612;51.768;21.590;2023-03-03T11:24:32;100129.81;;;1.54;99.62
51528;BME280;37612;51.768;21.590;2023-03-03T11:29:19;100134.14;;;1.59;99.61
51528;BME280;37612;51.768;21.590;2023-03-03T11:33:43;100136.05;;;1.55;98.76
51528;BME280;37612;51.768;21.590;2023-03-03T11:42:51;100130.96;;;1.65;98.72
51528;BME280;37612;51.768;21.590;2023-03-03T11:47:09;100134.58;;;1.70;98.38
51528;BME280;37612;51.768;21.590;2023-03-03T11:51:25;100125.73;;;1.63;96.73
51528;BME280;37612;51.768;21.590;2023-03-03T11:55:35;100120.39;;;1.51;96.07
51528;BME280;37612;51.768;21.590;2023-03-03T11:59:47;100117.41;;;1.48;97.17
51528;BME280;37612;51.768;21.590;2023-03-03T12:17:15;100110.94;;;1.62;95.75
51528;BME280;37612;51.768;21.590;2023-03-03T12:34:39;100113.63;;;1.46;93.66
51528;BME280;37612;51.768;21.590;2023-03-03T12:39:08;100106.94;;;1.41;93.58
51528;BME280;37612;51.768;21.590;2023-03-03T12:47:41;100112.52;;;1.28;94.04
51528;BME280;37612;51.768;21.590;2023-03-03T12:52:51;100112.92;;;1.33;94.30
51528;BME280;37612;51.768;21.590;2023-03-03T12:57:11;100115.45;;;1.25;93.68
51528;BME280;37612;51.768;21.590;2023-03-03T13:01:42;100114.36;;;1.26;94.10
51528;BME280;37612;51.768;21.590;2023-03-03T13:23:34;100120.96;;;0.84;93.90
51528;BME280;37612;51.768;21.590;2023-03-03T13:27:40;100115.20;;;0.75;93.98
51528;BME280;37612;51.768;21.590;2023-03-03T13:31:48;100110.98;;;0.64;94.23
51528;BME280;37612;51.768;21.590;2023-03-03T13:36:11;100116.77;;;0.59;94.57
51528;BME280;37612;51.768;21.590;2023-03-03T13:40:16;100120.05;;;0.55;94.62
51528;BME280;37612;51.768;21.590;2023-03-03T13:44:24;100120.57;;;0.49;94.61
51528;BME280;37612;51.768;21.590;2023-03-03T13:57:46;100112.15;;;0.31;95.24
51528;BME280;37612;51.768;21.590;2023-03-03T14:01:58;100113.59;;;0.26;95.50
51528;BME280;37612;51.768;21.590;2023-03-03T14:06:13;100110.77;;;0.19;95.64
51528;BME280;37612;51.768;21.590;2023-03-03T14:11:02;100111.92;;;0.18;95.79
51528;BME280;37612;51.768;21.590;2023-03-03T14:15:28;100107.48;;;0.14;96.06
51528;BME280;37612;51.768;21.590;2023-03-03T14:19:43;100108.41;;;0.10;96.23
51528;BME280;37612;51.768;21.590;2023-03-03T14:24:20;100112.11;;;0.03;96.41
51528;BME280;37612;51.768;21.590;2023-03-03T14:34:02;100113.98;;;-0.14;96.94
51528;BME280;37612;51.768;21.590;2023-03-03T14:38:45;100109.05;;;-0.20;97.13
51528;BME280;37612;51.768;21.590;2023-03-03T14:47:16;100114.73;;;-0.30;97.51
51528;BME280;37612;51.768;21.590;2023-03-03T14:51:47;100109.17;;;-0.38;97.51
51528;BME280;37612;51.768;21.590;2023-03-03T14:56:24;100107.35;;;-0.42;98.13
51528;BME280;37612;51.768;21.590;2023-03-03T15:01:08;100109.66;;;-0.52;98.11
51528;BME280;37612;51.768;21.590;2023-03-03T15:05:52;100107.36;;;-0.51;98.20
51528;BME280;37612;51.768;21.590;2023-03-03T15:10:34;100110.33;;;-0.54;98.34
51528;BME280;37612;51.768;21.590;2023-03-03T15:14:38;100111.64;;;-0.55;98.69
51528;BME280;37612;51.768;21.590;2023-03-03T15:19:07;100114.09;;;-0.57;98.67
51528;BME280;37612;51.768;21.590;2023-03-03T15:24:12;100117.76;;;-0.66;98.75
51528;BME280;37612;51.768;21.590;2023-03-03T15:28:36;100114.02;;;-0.76;98.68
51528;BME280;37612;51.768;21.590;2023-03-03T15:33:12;100111.49;;;-0.81;98.87
51528;BME280;37612;51.768;21.590;2023-03-03T15:42:01;100114.52;;;-0.96;99.04
51528;BME280;37612;51.768;21.590;2023-03-03T15:46:52;100113.55;;;-1.00;99.14
51528;BME280;37612;51.768;21.590;2023-03-03T15:55:58;100119.67;;;-1.14;99.58
51528;BME280;37612;51.768;21.590;2023-03-03T16:00:08;100118.34;;;-1.14;99.62
51528;BME280;37612;51.768;21.590;2023-03-03T16:04:19;100113.95;;;-1.17;99.51
51528;BME280;37612;51.768;21.590;2023-03-03T16:08:41;100112.77;;;-1.16;99.84
51528;BME280;37612;51.768;21.590;2023-03-03T16:13:26;100114.17;;;-1.18;99.71
51528;BME280;37612;51.768;21.590;2023-03-03T16:26:52;100122.30;;;-1.17;99.98
51528;BME280;37612;51.768;21.590;2023-03-03T16:35:18;100120.11;;;-1.16;99.76
51528;BME280;37612;51.768;21.590;2023-03-03T16:53:17;100118.05;;;-1.15;100.00
51528;BME280;37612;51.768;21.590;2023-03-03T17:02:11;100120.11;;;-1.08;99.93
51528;BME280;37612;51.768;21.590;2023-03-03T17:06:38;100123.70;;;-1.15;99.90
51528;BME280;37612;51.768;21.590;2023-03-03T17:11:20;100116.89;;;-1.28;99.91
51528;BME280;37612;51.768;21.590;2023-03-03T17:15:45;100119.78;;;-1.32;99.97
51528;BME280;37612;51.768;21.590;2023-03-03T17:20:02;100118.30;;;-1.36;100.00
51528;BME280;37612;51.768;21.590;2023-03-03T17:42:46;100102.41;;;-1.36;99.93
51528;BME280;37612;51.768;21.590;2023-03-03T17:47:07;100106.02;;;-1.43;99.95
51528;BME280;37612;51.768;21.590;2023-03-03T17:51:41;100114.05;;;-1.47;100.00
51528;BME280;37612;51.768;21.590;2023-03-03T18:09:15;100113.06;;;-1.49;99.98
51528;BME280;37612;51.768;21.590;2023-03-03T18:14:16;100112.88;;;-1.55;99.99
51528;BME280;37612;51.768;21.590;2023-03-03T18:18:33;100108.95;;;-1.53;99.99
51528;BME280;37612;51.768;21.590;2023-03-03T18:22:54;100096.77;;;-1.54;99.93
51528;BME280;37612;51.768;21.590;2023-03-03T18:31:26;100088.61;;;-1.56;99.95
51528;BME280;37612;51.768;21.590;2023-03-03T18:44:32;100086.60;;;-1.48;99.96
51528;BME280;37612;51.768;21.590;2023-03-03T18:49:05;100091.31;;;-1.43;99.88
51528;BME280;37612;51.768;21.590;2023-03-03T18:53:47;100090.34;;;-1.41;99.93
51528;BME280;37612;51.768;21.590;2023-03-03T19:14:46;100078.17;;;-1.41;99.92
51528;BME280;37612;51.768;21.590;2023-03-03T19:28:02;100072.71;;;-1.39;99.96
51528;BME280;37612;51.768;21.590;2023-03-03T19:32:58;100074.81;;;-1.41;99.91
51528;BME280;37612;51.768;21.590;2023-03-03T19:56:47;100048.13;;;-1.27;99.71
51528;BME280;37612;51.768;21.590;2023-03-03T20:09:55;100023.02;;;-1.38;99.45
51528;BME280;37612;51.768;21.590;2023-03-03T20:19:16;100006.20;;;-1.37;99.41
51528;BME280;37612;51.768;21.590;2023-03-03T20:37:40;100009.70;;;-1.39;99.28
51528;BME280;37612;51.768;21.590;2023-03-03T20:41:55;100011.07;;;-1.39;99.14
51528;BME280;37612;51.768;21.590;2023-03-03T20:54:57;100004.84;;;-1.36;98.78
51528;BME280;37612;51.768;21.590;2023-03-03T20:59:26;99994.97;;;-1.35;98.73
51528;BME280;37612;51.768;21.590;2023-03-03T21:03:36;99988.41;;;-1.36;98.60
51528;BME280;37612;51.768;21.590;2023-03-03T21:07:59;99981.19;;;-1.32;98.64
51528;BME280;37612;51.768;21.590;2023-03-03T21:12:30;99967.54;;;-1.27;98.56
51528;BME280;37612;51.768;21.590;2023-03-03T21:16:32;99954.49;;;-1.25;98.78
51528;BME280;37612;51.768;21.590;2023-03-03T21:20:35;99945.52;;;-1.24;98.72
51528;BME280;37612;51.768;21.590;2023-03-03T21:28:59;99949.07;;;-1.19;98.64
51528;BME280;37612;51.768;21.590;2023-03-03T21:33:01;99957.71;;;-1.19;98.32
51528;BME280;37612;51.768;21.590;2023-03-03T21:37:09;99952.86;;;-1.23;98.52
51528;BME280;37612;51.768;21.590;2023-03-03T21:41:13;99952.52;;;-1.21;98.12
51528;BME280;37612;51.768;21.590;2023-03-03T21:45:17;99947.54;;;-1.19;98.34
51528;BME280;37612;51.768;21.590;2023-03-03T21:49:20;99945.02;;;-1.20;98.08
51528;BME280;37612;51.768;21.590;2023-03-03T21:53:21;99943.65;;;-1.20;98.33
51528;BME280;37612;51.768;21.590;2023-03-03T21:57:23;99936.48;;;-1.15;98.07
51528;BME280;37612;51.768;21.590;2023-03-03T22:01:25;99929.63;;;-1.15;98.09
51528;BME280;37612;51.768;21.590;2023-03-03T22:05:26;99929.93;;;-1.16;98.25
51528;BME280;37612;51.768;21.590;2023-03-03T22:09:28;99922.45;;;-1.15;98.17
51528;BME280;37612;51.768;21.590;2023-03-03T22:13:29;99928.77;;;-1.15;97.77
51528;BME280;37612;51.768;21.590;2023-03-03T22:17:34;99920.22;;;-1.18;97.79
51528;BME280;37612;51.768;21.590;2023-03-03T22:21:38;99908.20;;;-1.21;97.54
51528;BME280;37612;51.768;21.590;2023-03-03T22:25:40;99913.33;;;-1.21;97.56
51528;BME280;37612;51.768;21.590;2023-03-03T22:29:43;99906.63;;;-1.21;97.42
51528;BME280;37612;51.768;21.590;2023-03-03T22:33:47;99898.45;;;-1.23;97.67
51528;BME280;37612;51.768;21.590;2023-03-03T22:38:01;99886.89;;;-1.18;97.33
51528;BME280;37612;51.768;21.590;2023-03-03T22:42:06;99882.06;;;-1.16;97.28
51528;BME280;37612;51.768;21.590;2023-03-03T22:46:08;99878.20;;;-1.16;97.34
51528;BME280;37612;51.768;21.590;2023-03-03T22:50:10;99869.85;;;-1.16;97.35
51528;BME280;37612;51.768;21.590;2023-03-03T22:54:12;99862.04;;;-1.13;97.29
51528;BME280;37612;51.768;21.590;2023-03-03T22:58:14;99855.41;;;-1.12;97.13
51528;BME280;37612;51.768;21.590;2023-03-03T23:02:15;99847.31;;;-1.11;97.39
51528;BME280;37612;51.768;21.590;2023-03-03T23:06:17;99838.48;;;-1.14;97.39
51528;BME280;37612;51.768;21.590;2023-03-03T23:10:18;99828.12;;;-1.10;97.17
51528;BME280;37612;51.768;21.590;2023-03-03T23:14:19;99823.70;;;-1.08;97.15
51528;BME280;37612;51.768;21.590;2023-03-03T23:18:21;99812.96;;;-1.07;97.35
51528;BME280;37612;51.768;21.590;2023-03-03T23:22:22;99807.12;;;-1.09;97.19
51528;BME280;37612;51.768;21.590;2023-03-03T23:26:23;99801.02;;;-1.08;97.25
51528;BME280;37612;51.768;21.590;2023-03-03T23:30:24;99796.77;;;-1.03;97.13
51528;BME280;37612;51.768;21.590;2023-03-03T23:34:26;99789.42;;;-1.02;97.17
51528;BME280;37612;51.768;21.590;2023-03-03T23:38:27;99779.71;;;-1.01;97.29
51528;BME280;37612;51.768;21.590;2023-03-03T23:42:28;99776.93;;;-1.01;97.35
51528;BME280;37612;51.768;21.590;2023-03-03T23:46:30;99771.85;;;-1.01;97.42
51528;BME280;37612;51.768;21.590;2023-03-03T23:50:32;99761.61;;;-0.98;97.37
51528;BME280;37612;51.768;21.590;2023-03-03T23:54:36;99754.80;;;-0.96;97.22
51528;BME280;37612;51.768;21.590;2023-03-03T23:58:38;99750.92;;;-0.96;97.19
